createdAt,value
2017-09-26T00:00:43.738Z,68.8
2017-09-26T00:01:43.761Z,68.42
2017-09-26T00:02:44.108Z,68.52
2017-09-26T00:03:43.799Z,67.94
2017-09-26T00:04:43.826Z,67.27
2017-09-26T00:05:43.848Z,67.66
2017-09-26T00:06:43.870Z,67.37
2017-09-26T00:07:43.892Z,68.13
2017-09-26T00:08:43.910Z,67.94
2017-09-26T00:09:43.933Z,67.94
2017-09-26T00:10:43.954Z,67.85
2017-09-26T00:11:43.974Z,68.04
2017-09-26T00:12:43.996Z,68.04
2017-09-26T00:13:44.019Z,67.76
2017-09-26T00:14:44.036Z,67.72
2017-09-26T00:15:44.057Z,68.29
2017-09-26T00:16:44.074Z,67.91
2017-09-26T00:17:44.102Z,67.91
2017-09-26T00:18:44.174Z,68.87
2017-09-26T00:19:44.142Z,68.49
2017-09-26T00:20:44.164Z,68.77
2017-09-26T00:21:44.196Z,68.96
2017-09-26T00:22:44.220Z,68.87
2017-09-26T00:23:44.231Z,69.15
2017-09-26T00:24:44.249Z,68.87
2017-09-26T00:25:44.273Z,69.82
2017-09-26T00:26:44.290Z,69.15
2017-09-26T00:27:44.340Z,69.25
2017-09-26T00:28:44.330Z,69.44
2017-09-26T00:29:44.675Z,69.15
2017-09-26T00:30:44.373Z,69.82
2017-09-26T00:31:44.389Z,69.54
2017-09-26T00:32:44.416Z,69.54
2017-09-26T00:33:44.482Z,69.64
2017-09-26T00:34:44.454Z,70.11
2017-09-26T00:35:44.476Z,70.68
2017-09-26T00:36:44.500Z,70.75
2017-09-26T00:37:44.519Z,70.75
2017-09-26T00:38:44.538Z,70.75
2017-09-26T00:39:44.564Z,70.56
2017-09-26T00:40:44.584Z,71.26
2017-09-26T00:41:44.602Z,71.61
2017-09-26T00:42:44.622Z,70.78
2017-09-26T00:43:44.638Z,71.13
2017-09-26T00:44:44.664Z,71.16
2017-09-26T00:45:44.681Z,70.5
2017-09-26T00:46:44.703Z,70.78
2017-09-26T00:47:44.725Z,70.5
2017-09-26T00:48:45.074Z,70.68
2017-09-26T00:49:44.768Z,70.59
2017-09-26T00:50:45.119Z,69.92
2017-09-26T00:51:45.146Z,70.5
2017-09-26T00:52:44.890Z,70.59
2017-09-26T00:53:44.850Z,70.65
2017-09-26T00:54:45.186Z,70.68
2017-09-26T00:55:44.891Z,70.75
2017-09-26T00:56:44.912Z,70.78
2017-09-26T00:57:44.931Z,70.78
2017-09-26T00:58:44.951Z,70.21
2017-09-26T00:59:44.991Z,70.11
2017-09-26T01:00:45.006Z,70.21
2017-09-26T01:01:45.013Z,69.73
2017-09-26T01:02:45.034Z,70.01
2017-09-26T01:03:45.058Z,69.89
2017-09-26T01:04:45.076Z,69.79
2017-09-26T01:05:45.098Z,69.82
2017-09-26T01:06:45.118Z,68.87
2017-09-26T01:07:45.145Z,68.96
2017-09-26T01:08:45.164Z,69.06
2017-09-26T01:09:45.231Z,68.77
2017-09-26T01:10:45.210Z,68.74
2017-09-26T01:11:45.222Z,68.74
2017-09-26T01:12:45.241Z,68.74
2017-09-26T01:13:45.264Z,68.93
2017-09-26T01:14:45.313Z,69.21
2017-09-26T01:15:45.413Z,68.84
2017-09-26T01:16:45.328Z,68.84
2017-09-26T01:17:45.347Z,69.6
2017-09-26T01:18:45.365Z,69.89
2017-09-26T01:19:45.384Z,68.93
2017-09-26T01:20:45.407Z,69.12
2017-09-26T01:21:45.427Z,68.93
2017-09-26T01:22:45.449Z,69.12
2017-09-26T01:23:45.472Z,69.02
2017-09-26T01:24:45.497Z,68.35
2017-09-26T01:25:45.508Z,68.55
2017-09-26T01:26:45.855Z,69.12
2017-09-26T01:27:45.550Z,68.84
2017-09-26T01:28:45.626Z,69.6
2017-09-26T01:29:45.604Z,69.6
2017-09-26T01:30:45.611Z,69.79
2017-09-26T01:31:46.100Z,69.02
2017-09-26T01:32:45.656Z,69.12
2017-09-26T01:33:45.677Z,69.6
2017-09-26T01:34:45.695Z,69.79
2017-09-26T01:35:45.721Z,69.5
2017-09-26T01:36:45.739Z,69.89
2017-09-26T01:37:45.772Z,70.27
2017-09-26T01:38:45.794Z,70.61
2017-09-26T01:39:45.797Z,70.81
2017-09-26T01:40:45.821Z,71.09
2017-09-26T01:41:45.838Z,70.52
2017-09-26T01:42:45.859Z,70.46
2017-09-26T01:43:46.202Z,71.09
2017-09-26T01:44:46.219Z,71.03
2017-09-26T01:45:45.986Z,70.84
2017-09-26T01:46:45.945Z,70.56
2017-09-26T01:47:45.962Z,70.65
2017-09-26T01:48:45.980Z,70.75
2017-09-26T01:49:46.007Z,70.07
2017-09-26T01:50:46.023Z,70.17
2017-09-26T01:51:46.043Z,70.17
2017-09-26T01:52:46.077Z,70.23
2017-09-26T01:53:46.093Z,70.07
2017-09-26T01:54:46.104Z,70.07
2017-09-26T01:55:46.127Z,69.98
2017-09-26T01:56:46.149Z,69.98
2017-09-26T01:57:46.170Z,69.98
2017-09-26T01:58:46.187Z,69.89
2017-09-26T01:59:46.207Z,69.79
2017-09-26T02:00:46.282Z,69.7
2017-09-26T02:01:46.246Z,69.95
2017-09-26T02:02:46.269Z,70.04
2017-09-26T02:03:46.287Z,70.42
2017-09-26T02:04:46.308Z,71.38
2017-09-26T02:05:46.328Z,71.19
2017-09-26T02:06:46.350Z,71.57
2017-09-26T02:07:46.370Z,71.67
2017-09-26T02:08:46.395Z,71.57
2017-09-26T02:09:46.421Z,71.86
2017-09-26T02:10:46.435Z,71.86
2017-09-26T02:11:46.459Z,72.14
2017-09-26T02:12:46.470Z,71.95
2017-09-26T02:13:46.492Z,72.05
2017-09-26T02:14:46.512Z,72.24
2017-09-26T02:15:46.884Z,72.53
2017-09-26T02:16:46.606Z,72.91
2017-09-26T02:17:46.573Z,72.81
2017-09-26T02:18:46.592Z,73.1
2017-09-26T02:19:46.611Z,72.78
2017-09-26T02:20:46.632Z,73.58
2017-09-26T02:21:46.652Z,73.63
2017-09-26T02:22:46.998Z,73.54
2017-09-26T02:23:46.706Z,74.49
2017-09-26T02:24:46.716Z,74.49
2017-09-26T02:25:46.735Z,74.59
2017-09-26T02:26:46.758Z,74.69
2017-09-26T02:27:46.775Z,75.26
2017-09-26T02:28:46.799Z,75.35
2017-09-26T02:29:46.826Z,75.83
2017-09-26T02:30:46.840Z,75.93
2017-09-26T02:31:46.912Z,75.7
2017-09-26T02:32:46.877Z,75.83
2017-09-26T02:33:46.904Z,75.35
2017-09-26T02:34:46.917Z,75.45
2017-09-26T02:35:46.936Z,75.16
2017-09-26T02:36:46.958Z,74.88
2017-09-26T02:37:46.978Z,74.59
2017-09-26T02:38:46.998Z,74.88
2017-09-26T02:39:47.020Z,74.4
2017-09-26T02:40:47.038Z,73.92
2017-09-26T02:41:47.058Z,73.73
2017-09-26T02:42:47.081Z,73.25
2017-09-26T02:43:47.099Z,73.1
2017-09-26T02:44:47.135Z,73.19
2017-09-26T02:45:47.140Z,72.53
2017-09-26T02:46:47.531Z,72.72
2017-09-26T02:47:47.181Z,72.05
2017-09-26T02:48:47.203Z,72.33
2017-09-26T02:49:47.219Z,72.43
2017-09-26T02:50:47.238Z,72.24
2017-09-26T02:51:47.262Z,72.33
2017-09-26T02:52:47.282Z,72.43
2017-09-26T02:53:47.303Z,72.43
2017-09-26T02:54:47.323Z,72.43
2017-09-26T02:55:47.343Z,72.62
2017-09-26T02:56:47.368Z,72.91
2017-09-26T02:57:47.697Z,72.53
2017-09-26T02:58:47.405Z,73.1
2017-09-26T02:59:47.430Z,73.1
2017-09-26T03:00:47.442Z,73
2017-09-26T03:01:47.457Z,73
2017-09-26T03:02:47.481Z,72.81
2017-09-26T03:03:47.509Z,72.91
2017-09-26T03:04:47.851Z,72.14
2017-09-26T03:05:47.541Z,71.86
2017-09-26T03:06:47.561Z,71.86
2017-09-26T03:07:47.581Z,72.33
2017-09-26T03:08:47.607Z,72.53
2017-09-26T03:09:47.634Z,72.53
2017-09-26T03:10:47.649Z,71.95
2017-09-26T03:11:47.670Z,71.76
2017-09-26T03:12:47.679Z,71.76
2017-09-26T03:13:47.702Z,73.58
2017-09-26T03:14:47.730Z,73.39
2017-09-26T03:15:47.748Z,72.97
2017-09-26T03:16:47.764Z,73.25
2017-09-26T03:17:47.785Z,73
2017-09-26T03:18:47.803Z,72.62
2017-09-26T03:19:47.824Z,72.53
2017-09-26T03:20:47.927Z,71.57
2017-09-26T03:21:47.867Z,71.86
2017-09-26T03:22:47.885Z,71.67
2017-09-26T03:23:47.911Z,72.05
2017-09-26T03:24:47.935Z,71.86
2017-09-26T03:25:47.954Z,71.95
2017-09-26T03:26:47.962Z,71.28
2017-09-26T03:27:47.986Z,72.14
2017-09-26T03:28:48.005Z,71.67
2017-09-26T03:29:48.025Z,71.28
2017-09-26T03:30:48.056Z,71.76
2017-09-26T03:31:48.065Z,71.67
2017-09-26T03:32:48.087Z,71.57
2017-09-26T03:33:48.104Z,71.19
2017-09-26T03:34:48.130Z,71.47
2017-09-26T03:35:48.196Z,71.25
2017-09-26T03:36:48.166Z,70.71
2017-09-26T03:37:48.188Z,70.48
2017-09-26T03:38:48.207Z,69.85
2017-09-26T03:39:48.552Z,69.85
2017-09-26T03:40:48.246Z,70.58
2017-09-26T03:41:48.267Z,70.58
2017-09-26T03:42:48.296Z,70.87
2017-09-26T03:43:48.307Z,70.33
2017-09-26T03:44:48.328Z,70.2
2017-09-26T03:45:48.354Z,69.82
2017-09-26T03:46:48.371Z,69.56
2017-09-26T03:47:48.389Z,69.85
2017-09-26T03:48:48.405Z,69.91
2017-09-26T03:49:48.431Z,70.2
2017-09-26T03:50:48.448Z,70.23
2017-09-26T03:51:48.513Z,70.04
2017-09-26T03:52:48.491Z,70.42
2017-09-26T03:53:48.511Z,70.67
2017-09-26T03:54:48.544Z,70.71
2017-09-26T03:55:48.865Z,70.71
2017-09-26T03:56:48.584Z,70.81
2017-09-26T03:57:48.587Z,70.9
2017-09-26T03:58:48.628Z,70.42
2017-09-26T03:59:48.631Z,70.23
2017-09-26T04:00:48.647Z,70.33
2017-09-26T04:01:48.665Z,70.14
2017-09-26T04:02:48.687Z,70.52
2017-09-26T04:03:48.705Z,70.33
2017-09-26T04:04:48.723Z,70.71
2017-09-26T04:05:48.748Z,70.58
2017-09-26T04:06:48.773Z,71.19
2017-09-26T04:07:48.785Z,71.09
2017-09-26T04:08:48.806Z,71.76
2017-09-26T04:09:48.885Z,71.82
2017-09-26T04:10:48.848Z,72.3
2017-09-26T04:11:48.870Z,72.39
2017-09-26T04:12:48.886Z,72.2
2017-09-26T04:13:48.912Z,72.49
2017-09-26T04:14:48.927Z,72.78
2017-09-26T04:15:48.951Z,71.57
2017-09-26T04:16:48.979Z,72.05
2017-09-26T04:17:49.009Z,71.86
2017-09-26T04:18:49.007Z,71.76
2017-09-26T04:19:49.027Z,71.09
2017-09-26T04:20:49.053Z,71.67
2017-09-26T04:21:49.063Z,71.57
2017-09-26T04:22:49.087Z,71.38
2017-09-26T04:23:49.113Z,71.57
2017-09-26T04:24:49.126Z,71.67
2017-09-26T04:25:49.148Z,71.95
2017-09-26T04:26:49.166Z,71.67
2017-09-26T04:27:49.242Z,72.53
2017-09-26T04:28:49.214Z,72.05
2017-09-26T04:29:49.228Z,71.47
2017-09-26T04:30:49.251Z,71.57
2017-09-26T04:31:49.273Z,71.09
2017-09-26T04:32:49.300Z,71.47
2017-09-26T04:33:49.325Z,70.9
2017-09-26T04:34:49.334Z,70.84
2017-09-26T04:35:49.354Z,70.75
2017-09-26T04:36:49.373Z,70.75
2017-09-26T04:37:49.390Z,70.75
2017-09-26T04:38:49.414Z,71.32
2017-09-26T04:39:49.431Z,71.7
2017-09-26T04:40:49.455Z,71.32
2017-09-26T04:41:49.481Z,71.22
2017-09-26T04:42:49.497Z,71.42
2017-09-26T04:43:49.511Z,71.42
2017-09-26T04:44:49.537Z,71.32
2017-09-26T04:45:49.603Z,72.18
2017-09-26T04:46:49.587Z,72.08
2017-09-26T04:47:49.597Z,71.67
2017-09-26T04:48:49.620Z,72.81
2017-09-26T04:49:49.638Z,72.72
2017-09-26T04:50:49.656Z,72.91
2017-09-26T04:51:49.679Z,72.47
2017-09-26T04:52:49.697Z,72.28
2017-09-26T04:53:49.723Z,72.94
2017-09-26T04:54:49.741Z,72.81
2017-09-26T04:55:49.769Z,72.81
2017-09-26T04:56:49.781Z,72.66
2017-09-26T04:57:49.800Z,72.47
2017-09-26T04:58:49.822Z,72.85
2017-09-26T04:59:49.840Z,72.81
2017-09-26T05:00:49.866Z,73
2017-09-26T05:01:49.883Z,72.72
2017-09-26T05:02:49.902Z,73
2017-09-26T05:03:49.900Z,73.19
2017-09-26T05:04:49.914Z,73.58
2017-09-26T05:05:49.939Z,73.1
2017-09-26T05:06:49.955Z,72.72
2017-09-26T05:07:49.975Z,73
2017-09-26T05:08:49.998Z,73.39
2017-09-26T05:09:50.028Z,73.39
2017-09-26T05:10:50.042Z,73.1
2017-09-26T05:11:50.058Z,73.39
2017-09-26T05:12:50.076Z,72.53
2017-09-26T05:13:50.100Z,72.37
2017-09-26T05:14:50.121Z,72.47
2017-09-26T05:15:50.138Z,72.37
2017-09-26T05:16:50.171Z,72.85
2017-09-26T05:17:50.185Z,72.85
2017-09-26T05:18:50.203Z,72.28
2017-09-26T05:19:50.281Z,72.37
2017-09-26T05:20:50.249Z,71.99
2017-09-26T05:21:50.261Z,72.08
2017-09-26T05:22:50.285Z,71.7
2017-09-26T05:23:50.302Z,72.08
2017-09-26T05:24:50.331Z,71.8
2017-09-26T05:25:50.347Z,71.61
2017-09-26T05:26:50.364Z,71.8
2017-09-26T05:27:50.386Z,71.32
2017-09-26T05:28:50.407Z,71.61
2017-09-26T05:29:50.434Z,70.56
2017-09-26T05:30:50.456Z,70.68
2017-09-26T05:31:50.476Z,71.03
2017-09-26T05:32:50.511Z,71.22
2017-09-26T05:33:50.516Z,71.32
2017-09-26T05:34:50.584Z,71.13
2017-09-26T05:35:50.880Z,71.22
2017-09-26T05:36:50.572Z,71.42
2017-09-26T05:37:50.595Z,71.89
2017-09-26T05:38:50.615Z,72.28
2017-09-26T05:39:50.640Z,72.47
2017-09-26T05:40:50.658Z,72.85
2017-09-26T05:41:50.680Z,73.33
2017-09-26T05:42:50.699Z,73.04
2017-09-26T05:43:50.717Z,72.47
2017-09-26T05:44:50.739Z,72.56
2017-09-26T05:45:50.760Z,72.56
2017-09-26T05:46:50.780Z,71.8
2017-09-26T05:47:50.808Z,71.8
2017-09-26T05:48:50.822Z,71.8
2017-09-26T05:49:50.893Z,72.18
2017-09-26T05:50:50.861Z,71.64
2017-09-26T05:51:50.892Z,71.51
2017-09-26T05:52:50.911Z,71.61
2017-09-26T05:53:50.923Z,71.8
2017-09-26T05:54:50.950Z,70.78
2017-09-26T05:55:50.966Z,70.87
2017-09-26T05:56:50.991Z,70.78
2017-09-26T05:57:51.010Z,71.16
2017-09-26T05:58:51.033Z,70.78
2017-09-26T05:59:51.054Z,70.87
2017-09-26T06:00:51.075Z,70.59
2017-09-26T06:01:51.095Z,70.68
2017-09-26T06:02:51.112Z,70.3
2017-09-26T06:03:51.138Z,70.11
2017-09-26T06:04:51.153Z,69.92
2017-09-26T06:05:51.223Z,69.67
2017-09-26T06:06:51.201Z,69.64
2017-09-26T06:07:51.218Z,69.95
2017-09-26T06:08:51.242Z,68.9
2017-09-26T06:09:51.266Z,69.09
2017-09-26T06:10:51.337Z,69.67
2017-09-26T06:11:51.302Z,69
2017-09-26T06:12:51.320Z,68.9
2017-09-26T06:13:51.341Z,69.09
2017-09-26T06:14:51.362Z,69.09
2017-09-26T06:15:51.391Z,69.09
2017-09-26T06:16:51.408Z,69.09
2017-09-26T06:17:51.430Z,69
2017-09-26T06:18:51.765Z,68.9
2017-09-26T06:19:51.468Z,68.62
2017-09-26T06:20:51.497Z,68.33
2017-09-26T06:21:51.507Z,68.33
2017-09-26T06:22:51.842Z,68.62
2017-09-26T06:23:51.551Z,69.09
2017-09-26T06:24:51.579Z,68.33
2017-09-26T06:25:51.599Z,68.23
2017-09-26T06:26:51.639Z,67.69
2017-09-26T06:27:51.643Z,68.13
2017-09-26T06:28:51.667Z,67.5
2017-09-26T06:29:51.685Z,67.94
2017-09-26T06:30:51.706Z,67.85
2017-09-26T06:31:51.724Z,68.17
2017-09-26T06:32:52.066Z,68.07
2017-09-26T06:33:51.772Z,68.17
2017-09-26T06:34:51.794Z,68.84
2017-09-26T06:35:51.819Z,68.71
2017-09-26T06:36:52.162Z,68.9
2017-09-26T06:37:51.904Z,69.38
2017-09-26T06:38:51.877Z,69.09
2017-09-26T06:39:51.898Z,68.9
2017-09-26T06:40:51.918Z,69.95
2017-09-26T06:41:51.943Z,68.9
2017-09-26T06:42:51.964Z,68.55
2017-09-26T06:43:51.984Z,68.36
2017-09-26T06:44:52.006Z,68.07
2017-09-26T06:45:52.032Z,67.79
2017-09-26T06:46:52.052Z,67.79
2017-09-26T06:47:52.069Z,68.27
2017-09-26T06:48:52.108Z,68.27
2017-09-26T06:49:52.115Z,67.88
2017-09-26T06:50:52.144Z,67.31
2017-09-26T06:51:52.160Z,67.88
2017-09-26T06:52:52.179Z,67.34
2017-09-26T06:53:52.251Z,67.15
2017-09-26T06:54:52.220Z,66.96
2017-09-26T06:55:52.249Z,67.34
2017-09-26T06:56:52.274Z,67.05
2017-09-26T06:57:52.290Z,67.25
2017-09-26T06:58:52.311Z,67.05
2017-09-26T06:59:52.337Z,66.86
2017-09-26T07:00:52.663Z,66.38
2017-09-26T07:01:52.380Z,66.8
2017-09-26T07:02:52.404Z,66.48
2017-09-26T07:03:52.423Z,66.32
2017-09-26T07:04:52.442Z,66.42
2017-09-26T07:05:52.463Z,66.51
2017-09-26T07:06:52.485Z,66.32
2017-09-26T07:07:52.824Z,65.46
2017-09-26T07:08:52.586Z,65.36
2017-09-26T07:09:52.556Z,65.36
2017-09-26T07:10:52.577Z,65.75
2017-09-26T07:11:52.603Z,65.65
2017-09-26T07:12:52.939Z,65.46
2017-09-26T07:13:52.645Z,65.17
2017-09-26T07:14:52.667Z,65.75
2017-09-26T07:15:52.693Z,65.46
2017-09-26T07:16:52.721Z,65.65
2017-09-26T07:17:52.739Z,64.98
2017-09-26T07:18:52.757Z,64.92
2017-09-26T07:19:52.779Z,65.01
2017-09-26T07:20:52.798Z,65.11
2017-09-26T07:21:52.822Z,64.72
2017-09-26T07:22:52.847Z,64.25
2017-09-26T07:23:52.868Z,63.96
2017-09-26T07:24:52.894Z,64.92
2017-09-26T07:25:52.962Z,64.92
2017-09-26T07:26:52.937Z,64.82
2017-09-26T07:27:52.956Z,64.72
2017-09-26T07:28:52.980Z,64.63
2017-09-26T07:29:53.002Z,64.53
2017-09-26T07:30:53.023Z,64.43
2017-09-26T07:31:53.045Z,64.82
2017-09-26T07:32:53.387Z,64.25
2017-09-26T07:33:53.092Z,64.05
2017-09-26T07:34:53.120Z,63.76
2017-09-26T07:35:53.146Z,63.57
2017-09-26T07:36:53.472Z,63.76
2017-09-26T07:37:53.182Z,63.38
2017-09-26T07:38:53.203Z,63.51
2017-09-26T07:39:53.224Z,63.6
2017-09-26T07:40:53.248Z,62.93
2017-09-26T07:41:53.274Z,62.93
2017-09-26T07:42:53.306Z,62.74
2017-09-26T07:43:53.319Z,62.45
2017-09-26T07:44:53.342Z,62.39
2017-09-26T07:45:53.365Z,62.39
2017-09-26T07:46:53.386Z,62.01
2017-09-26T07:47:53.406Z,61.72
2017-09-26T07:48:53.430Z,61.52
2017-09-26T07:49:53.457Z,60.66
2017-09-26T07:50:53.479Z,60.02
2017-09-26T07:51:53.497Z,60.02
2017-09-26T07:52:53.523Z,59.73
2017-09-26T07:53:53.553Z,59.47
2017-09-26T07:54:53.569Z,58.89
2017-09-26T07:55:53.590Z,58.8
2017-09-26T07:56:53.615Z,58.8
2017-09-26T07:57:53.690Z,58.32
2017-09-26T07:58:53.667Z,57.75
2017-09-26T07:59:53.693Z,57.26
2017-09-26T08:00:53.710Z,56.33
2017-09-26T08:01:53.734Z,56.14
2017-09-26T08:02:53.760Z,55.88
2017-09-26T08:03:53.785Z,56.36
2017-09-26T08:04:53.804Z,56.45
2017-09-26T08:05:53.832Z,55.11
2017-09-26T08:06:53.867Z,55.3
2017-09-26T08:07:53.877Z,54.82
2017-09-26T08:08:53.903Z,54.46
2017-09-26T08:09:53.926Z,54.85
2017-09-26T08:10:53.947Z,53.02
2017-09-26T08:11:53.970Z,53.5
2017-09-26T08:12:54.043Z,54.56
2017-09-26T08:13:54.023Z,53.21
2017-09-26T08:14:54.044Z,52.63
2017-09-26T08:15:54.077Z,52.25
2017-09-26T08:16:54.094Z,51.98
2017-09-26T08:17:54.118Z,51.41
2017-09-26T08:18:54.140Z,51.21
2017-09-26T08:19:54.167Z,50.76
2017-09-26T08:20:54.516Z,50.63
2017-09-26T08:21:54.217Z,50.45
2017-09-26T08:22:54.238Z,51.02
2017-09-26T08:23:54.271Z,50.66
2017-09-26T08:24:54.298Z,49.79
2017-09-26T08:25:54.312Z,49.79
2017-09-26T08:26:54.339Z,49.34
2017-09-26T08:27:54.364Z,49.34
2017-09-26T08:28:54.388Z,49.53
2017-09-26T08:29:54.420Z,50.49
2017-09-26T08:30:54.443Z,50.47
2017-09-26T08:31:54.514Z,50.95
2017-09-26T08:32:54.491Z,50.57
2017-09-26T08:33:54.512Z,50.66
2017-09-26T08:34:54.575Z,51.24
2017-09-26T08:35:54.882Z,50.47
2017-09-26T08:36:55.002Z,50.78
2017-09-26T08:37:54.625Z,49.73
2017-09-26T08:38:54.638Z,49.43
2017-09-26T08:39:54.666Z,49.46
2017-09-26T08:40:54.693Z,49.15
2017-09-26T08:41:55.035Z,48.79
2017-09-26T08:42:54.742Z,48.52
2017-09-26T08:43:54.769Z,48.42
2017-09-26T08:44:54.790Z,47.85
2017-09-26T08:45:54.824Z,47.85
2017-09-26T08:46:54.895Z,47.94
2017-09-26T08:47:54.868Z,47.65
2017-09-26T08:48:54.898Z,47.55
2017-09-26T08:49:54.916Z,47.45
2017-09-26T08:50:54.945Z,47.75
2017-09-26T08:51:54.973Z,48.42
2017-09-26T08:52:55.002Z,48.4
2017-09-26T08:53:55.331Z,48.42
2017-09-26T08:54:55.047Z,48.4
2017-09-26T08:55:55.078Z,48.69
2017-09-26T08:56:55.098Z,48.42
2017-09-26T08:57:55.124Z,48.52
2017-09-26T08:58:55.153Z,48.33
2017-09-26T08:59:55.176Z,48.61
2017-09-26T09:00:55.203Z,48.33
2017-09-26T09:01:55.244Z,48.3
2017-09-26T09:02:55.261Z,48.21
2017-09-26T09:03:55.283Z,48.49
2017-09-26T09:04:55.302Z,49.17
2017-09-26T09:05:55.342Z,48.97
2017-09-26T09:06:55.351Z,48.97
2017-09-26T09:07:55.380Z,49.07
2017-09-26T09:08:55.421Z,49.17
2017-09-26T09:09:55.463Z,48.79
2017-09-26T09:10:55.461Z,49.37
2017-09-26T09:11:55.496Z,49.53
2017-09-26T09:12:55.531Z,49.43
2017-09-26T09:13:55.552Z,48.86
2017-09-26T09:14:55.573Z,49.65
2017-09-26T09:15:55.895Z,49.17
2017-09-26T09:16:55.953Z,49.75
2017-09-26T09:17:55.634Z,49.15
2017-09-26T09:18:55.656Z,49.27
2017-09-26T09:19:55.684Z,48.97
2017-09-26T09:20:56.081Z,49.37
2017-09-26T09:21:55.731Z,49.07
2017-09-26T09:22:56.078Z,49.07
2017-09-26T09:23:55.783Z,48.69
2017-09-26T09:24:55.813Z,48.79
2017-09-26T09:25:55.833Z,48.79
2017-09-26T09:26:55.864Z,49.46
2017-09-26T09:27:56.202Z,49.07
2017-09-26T09:28:55.908Z,49.07
2017-09-26T09:29:55.943Z,48.49
2017-09-26T09:30:56.276Z,48.4
2017-09-26T09:31:56.299Z,48.33
2017-09-26T09:32:56.010Z,48.52
2017-09-26T09:33:56.040Z,48.03
2017-09-26T09:34:56.063Z,47.65
2017-09-26T09:35:56.139Z,47.65
2017-09-26T09:36:56.113Z,47.94
2017-09-26T09:37:56.141Z,47.85
2017-09-26T09:38:56.166Z,47.75
2017-09-26T09:39:56.192Z,47.29
2017-09-26T09:40:56.224Z,47.48
2017-09-26T09:41:56.244Z,46.61
2017-09-26T09:42:56.276Z,46.15
2017-09-26T09:43:56.297Z,46.64
2017-09-26T09:44:56.355Z,46.9
2017-09-26T09:45:56.352Z,47
2017-09-26T09:46:56.696Z,46.06
2017-09-26T09:47:56.404Z,45.31
2017-09-26T09:48:56.796Z,44.53
2017-09-26T09:49:56.769Z,44.15
2017-09-26T09:50:56.484Z,43.88
2017-09-26T09:51:56.515Z,43.59
2017-09-26T09:52:56.540Z,43.13
2017-09-26T09:53:56.880Z,42.55
2017-09-26T09:54:56.602Z,41.99
2017-09-26T09:55:56.627Z,41.79
2017-09-26T09:56:56.659Z,40.65
2017-09-26T09:57:56.681Z,40.75
2017-09-26T09:58:56.711Z,40.94
2017-09-26T09:59:56.739Z,40.75
2017-09-26T10:00:57.084Z,40.94
2017-09-26T10:01:56.802Z,40.58
2017-09-26T10:02:56.828Z,40.48
2017-09-26T10:03:56.858Z,40.38
2017-09-26T10:04:56.887Z,39.8
2017-09-26T10:05:56.914Z,39.43
2017-09-26T10:06:56.948Z,39.26
2017-09-26T10:07:56.976Z,38.19
2017-09-26T10:08:57.060Z,38.6
2017-09-26T10:09:57.036Z,37.73
2017-09-26T10:10:57.067Z,37.24
2017-09-26T10:11:57.093Z,36.68
2017-09-26T10:12:57.122Z,36.68
2017-09-26T10:13:57.158Z,36.79
2017-09-26T10:14:57.187Z,36.6
2017-09-26T10:15:57.215Z,36.6
2017-09-26T10:16:57.245Z,35.92
2017-09-26T10:17:57.285Z,36.6
2017-09-26T10:18:57.305Z,36.04
2017-09-26T10:19:57.336Z,35.45
2017-09-26T10:20:57.385Z,34.69
2017-09-26T10:21:57.425Z,34.59
2017-09-26T10:22:57.430Z,34.12
2017-09-26T10:23:57.465Z,33.56
2017-09-26T10:24:57.554Z,33.26
2017-09-26T10:25:57.525Z,32.49
2017-09-26T10:26:57.558Z,32.78
2017-09-26T10:27:57.587Z,32.78
2017-09-26T10:28:57.625Z,32.21
2017-09-26T10:29:57.659Z,31.84
2017-09-26T10:30:57.685Z,31.53
2017-09-26T10:31:57.715Z,32.32
2017-09-26T10:32:57.748Z,31.63
2017-09-26T10:33:57.785Z,31.25
2017-09-26T10:34:57.815Z,31.07
2017-09-26T10:35:57.852Z,31.27
2017-09-26T10:36:57.885Z,31.07
2017-09-26T10:37:57.913Z,30.51
2017-09-26T10:38:57.943Z,30.11
2017-09-26T10:39:57.976Z,30.21
2017-09-26T10:40:58.011Z,29.74
2017-09-26T10:41:58.042Z,29.15
2017-09-26T10:42:58.076Z,29.06
2017-09-26T10:43:58.112Z,28.68
2017-09-26T10:44:58.139Z,28.49
2017-09-26T10:45:58.191Z,28.39
2017-09-26T10:46:58.232Z,28.58
2017-09-26T10:47:58.249Z,28.08
2017-09-26T10:48:58.277Z,28.49
2017-09-26T10:49:58.316Z,28.39
2017-09-26T10:50:58.343Z,28.67
2017-09-26T10:51:58.381Z,28.78
2017-09-26T10:52:58.410Z,27.8
2017-09-26T10:53:58.446Z,28.09
2017-09-26T10:54:58.483Z,28.49
2017-09-26T10:55:58.516Z,29.66
2017-09-26T10:56:58.547Z,29.46
2017-09-26T10:57:58.585Z,29.17
2017-09-26T10:58:58.616Z,28.59
2017-09-26T10:59:58.647Z,28.01
2017-09-26T11:00:58.734Z,27.83
2017-09-26T11:01:58.718Z,27.83
2017-09-26T11:02:58.757Z,27.36
2017-09-26T11:03:58.783Z,27.37
2017-09-26T11:04:58.826Z,27.55
2017-09-26T11:05:58.857Z,27.83
2017-09-26T11:06:58.889Z,27.45
2017-09-26T11:07:59.232Z,27.36
2017-09-26T11:08:58.955Z,26.67
2017-09-26T11:09:58.992Z,27.06
2017-09-26T11:10:59.078Z,27.06
2017-09-26T11:11:59.060Z,26.88
2017-09-26T11:12:59.094Z,25.9
2017-09-26T11:13:59.123Z,26.31
2017-09-26T11:14:59.162Z,25.24
2017-09-26T11:15:59.244Z,24.37
2017-09-26T11:16:59.541Z,23.5
2017-09-26T11:17:59.262Z,23.99
2017-09-26T11:18:59.297Z,23.52
2017-09-26T11:19:59.342Z,23.02
2017-09-26T11:20:59.367Z,22.64
2017-09-26T11:21:59.404Z,22.84
2017-09-26T11:22:59.437Z,22.25
2017-09-26T11:23:59.475Z,22.26
2017-09-26T11:24:59.512Z,21.29
2017-09-26T11:25:59.546Z,21.77
2017-09-26T11:26:59.577Z,21.78
2017-09-26T11:27:59.616Z,21.19
2017-09-26T11:28:59.648Z,21.01
2017-09-26T11:29:59.693Z,20.33
2017-09-26T11:30:59.722Z,20.04
2017-09-26T11:31:59.757Z,19.65
2017-09-26T11:32:59.790Z,20.04
2017-09-26T11:33:59.831Z,20.43
2017-09-26T11:34:59.869Z,20.51
2017-09-26T11:36:00.216Z,20.32
2017-09-26T11:36:59.978Z,20.51
2017-09-26T11:37:59.998Z,20.12
2017-09-26T11:39:00.014Z,20.12
2017-09-26T11:40:00.049Z,20.21
2017-09-26T11:41:00.082Z,19.44
2017-09-26T11:42:00.124Z,19.14
2017-09-26T11:43:00.162Z,18.76
2017-09-26T11:44:00.198Z,18.57
2017-09-26T11:45:00.235Z,17.89
2017-09-26T11:46:00.279Z,18.19
2017-09-26T11:47:00.306Z,18.29
2017-09-26T11:48:00.649Z,18.19
2017-09-26T11:49:00.379Z,17.81
2017-09-26T11:50:00.414Z,16.74
2017-09-26T11:51:00.454Z,17.63
2017-09-26T11:52:00.483Z,17.44
2017-09-26T11:53:00.523Z,17.64
2017-09-26T11:54:00.570Z,17.75
2017-09-26T11:55:00.603Z,16.47
2017-09-26T11:56:00.947Z,16.08
2017-09-26T11:57:00.672Z,16.68
2017-09-26T11:58:00.709Z,16.48
2017-09-26T11:59:00.746Z,16.09
2017-09-26T12:00:00.780Z,16.09
2017-09-26T12:01:00.818Z,16
2017-09-26T12:02:00.853Z,16.1
2017-09-26T12:03:00.918Z,15.21
2017-09-26T12:04:00.932Z,15.51
2017-09-26T12:05:00.968Z,15.3
2017-09-26T12:06:01.012Z,14.72
2017-09-26T12:07:01.042Z,14.53
2017-09-26T12:08:01.080Z,14.92
2017-09-26T12:09:01.126Z,15.13
2017-09-26T12:10:01.154Z,14.64
2017-09-26T12:11:01.192Z,14.73
2017-09-26T12:12:01.234Z,14.83
2017-09-26T12:13:01.271Z,15.02
2017-09-26T12:14:01.306Z,14.92
2017-09-26T12:15:01.343Z,15.61
2017-09-26T12:16:01.382Z,15.89
2017-09-26T12:17:01.420Z,15.89
2017-09-26T12:18:01.775Z,15.5
2017-09-26T12:19:01.510Z,15.11
2017-09-26T12:20:01.544Z,14.82
2017-09-26T12:21:01.579Z,14.64
2017-09-26T12:22:01.616Z,14.64
2017-09-26T12:23:01.645Z,15.02
2017-09-26T12:24:01.687Z,15.13
2017-09-26T12:25:01.739Z,14.94
2017-09-26T12:26:01.767Z,14.25
2017-09-26T12:27:01.802Z,13.85
2017-09-26T12:28:01.836Z,14.06
2017-09-26T12:29:01.879Z,13.66
2017-09-26T12:30:01.915Z,13.56
2017-09-26T12:31:01.950Z,14.06
2017-09-26T12:32:01.989Z,13.46
2017-09-26T12:33:02.026Z,13.67
2017-09-26T12:34:02.064Z,12.98
2017-09-26T12:35:02.100Z,13.57
2017-09-26T12:36:02.148Z,13.76
2017-09-26T12:37:02.184Z,13.18
2017-09-26T12:38:02.218Z,12.88
2017-09-26T12:39:02.254Z,12.79
2017-09-26T12:40:02.347Z,12.19
2017-09-26T12:41:02.331Z,12.2
2017-09-26T12:42:02.369Z,12.3
2017-09-26T12:43:02.416Z,11.9
2017-09-26T12:44:02.448Z,12.5
2017-09-26T12:45:02.490Z,12.29
2017-09-26T12:46:02.525Z,11.99
2017-09-26T12:47:02.567Z,12.19
2017-09-26T12:48:02.601Z,11.51
2017-09-26T12:49:02.639Z,11.8
2017-09-26T12:50:02.678Z,12.19
2017-09-26T12:51:02.715Z,11.8
2017-09-26T12:52:02.757Z,11.91
2017-09-26T12:53:02.794Z,11.33
2017-09-26T12:54:02.839Z,11.13
2017-09-26T12:55:02.923Z,11.61
2017-09-26T12:56:02.912Z,11.71